Cricklewood, United Kingdom
Current Conditions -  °F | °C
As of 9:50 AM on Friday 28 Nov 2014 (Local Time) from EGWU Reporting Station
Haze Haze  
Wind Chill: 52°   Ceiling: 800
Heat Index: 52°   Visibility: 4mi
Dew Point: 50°   Wind: 14mph
Humidity: 94%   Direction: 100°E
Pressure: 29.59"   Gusts: NA
Location:  51.56°N, 0.21°W
Report Text: EGWU 280950Z 10012KT 6000 HZ SCT006 BKN008 11/10 Q1002 YLO1 BECMG FEW006 SCT010 GRN
Loading
Personal Weather Stations






























Interactive Weather Map New forecast layout! Learn more

10-Day Weather Forecast

Advertisements
Track Severe Weather on mobile